Time;durP1;ratioP1;P1;durP2;ratioP2;P2;SDS_P1;SDS_P2;PMS_P1;PMS_P2;Temp;Humidity;BMP_temperature;BMP_pressure;BME280_temperature;BME280_humidity;BME280_pressure;Samples;Min_cycle;Max_cycle;Signal;HPM_P1;HPM_P2
2021/12/31 00:01:11;;;;;;;12.63;2.88;;;11.60;99.90;;;;;;5104645;28;20485;-46
2021/12/31 00:03:37;;;;;;;14.93;2.85;;;11.70;99.90;;;;;;5082410;28;20088;-47
2021/12/31 00:06:05;;;;;;;14.73;2.95;;;11.70;99.90;;;;;;5106856;28;20424;-46
2021/12/31 00:08:30;;;;;;;11.15;3.10;;;11.70;99.90;;;;;;5073325;28;20039;-45
2021/12/31 00:10:59;;;;;;;17.15;3.22;;;11.70;99.90;;;;;;5069687;28;20050;-46
2021/12/31 00:13:29;;;;;;;14.50;3.30;;;11.60;99.90;;;;;;5063835;28;20077;-48
2021/12/31 00:15:56;;;;;;;12.55;3.00;;;11.70;99.90;;;;;;5073029;28;20426;-46
2021/12/31 00:18:25;;;;;;;13.93;3.08;;;11.60;99.90;;;;;;5070933;28;20407;-47
2021/12/31 00:20:51;;;;;;;12.15;2.90;;;11.60;99.90;;;;;;5086956;28;20119;-51
2021/12/31 00:23:23;;;;;;;15.95;3.38;;;11.60;99.90;;;;;;5048964;28;20046;-46
2021/12/31 00:25:49;;;;;;;16.30;3.25;;;11.70;99.90;;;;;;5100089;28;20040;-45
2021/12/31 00:28:15;;;;;;;14.10;3.08;;;11.60;99.90;;;;;;5088937;28;20492;-48
2021/12/31 00:30:41;;;;;;;14.77;3.10;;;11.60;99.90;;;;;;5082249;28;20374;-46
2021/12/31 00:33:08;;;;;;;14.80;2.88;;;11.60;99.90;;;;;;5061478;28;20036;-49
2021/12/31 00:35:36;;;;;;;13.52;3.00;;;11.60;99.90;;;;;;5062517;28;20040;-47
2021/12/31 00:38:03;;;;;;;16.20;3.33;;;11.60;99.90;;;;;;5062883;28;20100;-50
2021/12/31 00:40:30;;;;;;;16.00;3.40;;;11.60;99.90;;;;;;5079645;28;20063;-49
2021/12/31 00:42:56;;;;;;;17.83;3.35;;;11.60;99.90;;;;;;5077935;28;20043;-47
2021/12/31 00:45:26;;;;;;;10.52;2.70;;;11.60;99.90;;;;;;5062061;28;20048;-49
2021/12/31 00:47:53;;;;;;;12.82;3.40;;;11.60;99.90;;;;;;5088375;28;20084;-46
2021/12/31 00:50:20;;;;;;;14.65;2.88;;;11.60;99.90;;;;;;5056069;28;20032;-49
2021/12/31 00:52:46;;;;;;;17.17;3.33;;;11.60;99.90;;;;;;5091655;28;20111;-46
2021/12/31 00:55:12;;;;;;;14.52;3.05;;;11.50;99.90;;;;;;5054344;28;20578;-47
2021/12/31 00:57:39;;;;;;;21.50;3.22;;;11.50;99.90;;;;;;5068052;28;20048;-46
2021/12/31 01:00:09;;;;;;;16.77;3.25;;;11.50;99.90;;;;;;5081773;28;20114;-46
2021/12/31 01:02:35;;;;;;;16.08;3.08;;;11.50;99.90;;;;;;5073897;28;20136;-47
2021/12/31 01:05:03;;;;;;;20.02;3.60;;;11.50;99.90;;;;;;5069377;28;20105;-47
2021/12/31 01:07:29;;;;;;;14.88;2.95;;;11.50;99.90;;;;;;5087928;28;20355;-50
2021/12/31 01:09:55;;;;;;;13.32;2.95;;;11.50;99.90;;;;;;5055857;28;20056;-47
2021/12/31 01:12:23;;;;;;;14.90;3.43;;;11.50;99.90;;;;;;5066511;28;20044;-45
2021/12/31 01:14:57;;;;;;;13.40;3.20;;;11.50;99.90;;;;;;5067313;28;20040;-46
2021/12/31 01:20:09;;;;;;;14.50;3.00;;;11.40;99.90;;;;;;5066446;28;20044;-46
2021/12/31 01:22:36;;;;;;;16.35;3.47;;;11.40;99.90;;;;;;5087660;28;20097;-46
2021/12/31 01:25:04;;;;;;;18.52;3.40;;;11.40;99.90;;;;;;5082118;28;20036;-45
2021/12/31 01:27:31;;;;;;;16.83;3.25;;;11.40;99.90;;;;;;5059036;28;20082;-48
2021/12/31 01:29:57;;;;;;;17.17;3.47;;;11.40;99.90;;;;;;5062567;28;20109;-46
2021/12/31 01:32:24;;;;;;;26.48;3.63;;;11.40;99.90;;;;;;5065156;28;20228;-45
2021/12/31 01:34:50;;;;;;;20.88;3.10;;;11.40;99.90;;;;;;5068087;28;20490;-49
2021/12/31 01:37:16;;;;;;;14.93;3.00;;;11.40;99.90;;;;;;5085871;28;20048;-47
2021/12/31 01:39:43;;;;;;;20.63;3.58;;;11.40;99.90;;;;;;5068104;28;20162;-47
2021/12/31 01:42:13;;;;;;;15.85;2.97;;;11.40;99.90;;;;;;5066064;28;20654;-48
2021/12/31 01:44:51;;;;;;;18.52;4.28;;;11.40;99.90;;;;;;5052100;28;20174;-48
2021/12/31 01:47:22;;;;;;;12.25;2.80;;;11.40;99.90;;;;;;5065865;28;20086;-49
2021/12/31 01:49:58;;;;;;;11.80;2.88;;;11.40;99.90;;;;;;5064653;28;20052;-49
2021/12/31 01:52:24;;;;;;;18.98;3.40;;;11.40;99.90;;;;;;5066054;28;20616;-46
2021/12/31 01:54:51;;;;;;;15.30;3.05;;;11.40;99.90;;;;;;5063206;28;20040;-47
2021/12/31 01:57:18;;;;;;;11.40;2.97;;;11.50;99.90;;;;;;5070364;28;20044;-45
2021/12/31 01:59:44;;;;;;;18.17;3.63;;;11.50;99.90;;;;;;5041264;28;20044;-46
2021/12/31 02:02:11;;;;;;;18.45;2.90;;;11.50;99.90;;;;;;5061592;28;20227;-45
2021/12/31 02:04:39;;;;;;;16.80;2.90;;;11.50;99.90;;;;;;5048033;28;20040;-47
2021/12/31 02:07:06;;;;;;;13.18;2.85;;;11.50;99.90;;;;;;5088812;28;20040;-46
2021/12/31 02:09:37;;;;;;;11.38;3.45;;;11.50;99.90;;;;;;5067130;28;20058;-47
2021/12/31 02:12:04;;;;;;;17.65;3.60;;;11.50;99.90;;;;;;5059421;28;20046;-47
2021/12/31 02:14:31;;;;;;;20.07;3.37;;;11.50;99.90;;;;;;5084823;28;20055;-47
2021/12/31 02:16:57;;;;;;;18.83;3.47;;;11.50;99.90;;;;;;5079432;28;20028;-47
2021/12/31 02:19:28;;;;;;;18.33;2.85;;;11.50;99.90;;;;;;5080120;28;20058;-47
2021/12/31 02:21:57;;;;;;;15.50;2.75;;;11.50;99.90;;;;;;5048327;28;20422;-46
2021/12/31 02:24:23;;;;;;;14.70;2.72;;;11.50;99.90;;;;;;5066559;28;20068;-49
2021/12/31 02:26:50;;;;;;;19.30;3.22;;;11.50;99.90;;;;;;5049865;28;20093;-47
2021/12/31 02:29:18;;;;;;;14.23;2.88;;;11.50;99.90;;;;;;5065970;28;20167;-47
2021/12/31 02:31:44;;;;;;;16.73;3.15;;;11.50;99.90;;;;;;5076811;28;20120;-46
2021/12/31 02:34:11;;;;;;;17.45;3.30;;;11.50;99.90;;;;;;5077137;28;20055;-46
2021/12/31 02:36:37;;;;;;;16.38;3.00;;;11.50;99.90;;;;;;5057257;28;20040;-46
2021/12/31 02:39:04;;;;;;;15.98;3.53;;;11.50;99.90;;;;;;5083131;28;20423;-49
2021/12/31 02:41:30;;;;;;;12.48;3.17;;;11.50;99.90;;;;;;5070837;28;20444;-47
2021/12/31 02:43:56;;;;;;;15.05;3.20;;;11.60;99.90;;;;;;5060760;28;20551;-45
2021/12/31 02:46:22;;;;;;;13.70;3.05;;;11.60;99.90;;;;;;5081569;28;20047;-46
2021/12/31 02:48:56;;;;;;;15.90;3.30;;;11.60;99.90;;;;;;5068848;28;20490;-47
2021/12/31 02:51:27;;;;;;;11.40;2.78;;;11.60;99.90;;;;;;5062626;28;20401;-48
2021/12/31 02:53:54;;;;;;;17.38;3.70;;;11.60;99.90;;;;;;5082668;28;20406;-50
2021/12/31 02:56:21;;;;;;;19.05;3.10;;;11.60;99.90;;;;;;5062311;28;20050;-47
2021/12/31 02:58:47;;;;;;;16.60;3.00;;;11.60;99.90;;;;;;5064821;28;20115;-45
2021/12/31 03:01:14;;;;;;;11.88;2.90;;;11.70;99.90;;;;;;5036838;28;20032;-47
2021/12/31 03:03:41;;;;;;;13.18;2.90;;;11.70;99.90;;;;;;5067895;28;20041;-48
2021/12/31 03:06:09;;;;;;;8.93;3.10;;;11.70;99.90;;;;;;5083455;28;20029;-48
2021/12/31 03:08:46;;;;;;;13.85;2.75;;;11.70;99.90;;;;;;5080332;28;20505;-46
2021/12/31 03:11:16;;;;;;;10.93;3.70;;;11.70;99.90;;;;;;5061481;28;20040;-48
2021/12/31 03:13:44;;;;;;;11.52;2.58;;;11.70;99.90;;;;;;5081110;28;20494;-47
2021/12/31 03:16:11;;;;;;;10.82;2.78;;;11.70;99.90;;;;;;5085602;28;20039;-47
2021/12/31 03:18:38;;;;;;;10.90;2.55;;;11.80;99.90;;;;;;5066684;28;20047;-45
2021/12/31 03:21:20;;;;;;;12.75;3.65;;;11.80;99.90;;;;;;5059912;28;20059;-47
2021/12/31 03:23:48;;;;;;;11.45;2.78;;;11.80;99.90;;;;;;5067931;28;20044;-47
2021/12/31 03:26:15;;;;;;;;;;;11.80;99.90;;;;;;5059645;28;20048;-46
2021/12/31 03:28:40;;;;;;;10.90;2.72;;;11.80;99.90;;;;;;5063029;28;19916;-47
2021/12/31 03:31:06;;;;;;;13.07;2.78;;;11.80;99.90;;;;;;5046071;28;20044;-45
2021/12/31 03:33:32;;;;;;;13.32;3.05;;;11.80;99.90;;;;;;5079835;28;20048;-47
2021/12/31 03:35:58;;;;;;;10.00;2.80;;;11.90;99.90;;;;;;5085917;28;20055;-49
2021/12/31 03:38:24;;;;;;;11.57;2.80;;;11.90;99.90;;;;;;5072336;28;20071;-47
2021/12/31 03:40:52;;;;;;;13.88;3.10;;;11.90;99.90;;;;;;5073345;28;20083;-45
2021/12/31 03:43:18;;;;;;;7.75;2.85;;;11.90;99.90;;;;;;5082743;28;20048;-49
2021/12/31 03:45:46;;;;;;;10.13;2.92;;;11.90;99.90;;;;;;5063050;28;20064;-47
2021/12/31 03:48:12;;;;;;;9.93;3.15;;;11.90;99.90;;;;;;5064369;28;20044;-46
2021/12/31 03:50:38;;;;;;;11.00;3.03;;;11.90;99.90;;;;;;5064024;28;20051;-46
2021/12/31 03:53:04;;;;;;;14.73;3.17;;;11.90;99.90;;;;;;5084885;28;20039;-47
2021/12/31 03:55:30;;;;;;;12.50;3.17;;;11.90;99.90;;;;;;5043794;28;20043;-46
2021/12/31 03:57:55;;;;;;;10.30;2.80;;;11.90;99.90;;;;;;5048694;28;20426;-47
2021/12/31 04:00:23;;;;;;;;;;;11.90;99.90;;;;;;5085230;28;20410;-46
2021/12/31 04:02:49;;;;;;;8.38;2.38;;;11.90;99.90;;;;;;5061461;28;20489;-46
2021/12/31 04:05:15;;;;;;;10.35;2.60;;;11.90;99.90;;;;;;5075828;28;20568;-48
2021/12/31 04:07:41;;;;;;;7.93;2.20;;;11.90;99.90;;;;;;5057165;28;20123;-46
2021/12/31 04:10:07;;;;;;;11.45;2.60;;;11.90;99.90;;;;;;5082835;28;20036;-46
2021/12/31 04:12:34;;;;;;;12.07;2.63;;;11.90;99.90;;;;;;5059447;28;20104;-46
2021/12/31 04:15:00;;;;;;;11.23;2.20;;;11.90;99.90;;;;;;5069143;28;20387;-50
2021/12/31 04:17:26;;;;;;;9.60;2.03;;;11.90;99.90;;;;;;5049806;28;20084;-46
2021/12/31 04:19:55;;;;;;;7.72;2.20;;;11.90;99.90;;;;;;5086488;28;20173;-46
2021/12/31 04:22:24;;;;;;;7.47;2.03;;;11.90;99.90;;;;;;5081647;28;20078;-47
2021/12/31 04:24:52;;;;;;;7.20;1.80;;;11.80;99.90;;;;;;5056877;28;20036;-46
2021/12/31 04:27:20;;;;;;;11.93;2.70;;;11.90;99.90;;;;;;5065737;28;20172;-47
2021/12/31 04:29:53;;;;;;;6.82;1.85;;;11.90;99.90;;;;;;5074801;28;20132;-46
2021/12/31 04:32:21;;;;;;;12.48;2.78;;;11.90;99.90;;;;;;5065821;28;20048;-47
2021/12/31 04:34:47;;;;;;;6.88;2.40;;;11.90;99.90;;;;;;5081785;28;20095;-47
2021/12/31 04:37:13;;;;;;;13.65;2.60;;;11.90;99.90;;;;;;5086317;28;20542;-48
2021/12/31 04:39:39;;;;;;;9.07;2.33;;;11.90;99.90;;;;;;5067632;28;20032;-47
2021/12/31 04:42:06;;;;;;;9.30;2.22;;;12.00;99.90;;;;;;5047919;28;20056;-47
2021/12/31 04:44:32;;;;;;;10.10;2.92;;;11.90;99.90;;;;;;5098248;28;20048;-48
2021/12/31 04:46:58;;;;;;;13.35;2.78;;;11.90;99.90;;;;;;5062341;28;20067;-49
2021/12/31 04:49:24;;;;;;;6.82;2.42;;;12.00;99.90;;;;;;5079259;28;20335;-47
2021/12/31 04:51:50;;;;;;;7.85;1.80;;;12.00;99.90;;;;;;5096601;28;20036;-47
2021/12/31 04:54:16;;;;;;;9.40;2.33;;;12.00;99.90;;;;;;5085120;28;20052;-46
2021/12/31 04:56:43;;;;;;;12.90;2.67;;;12.00;99.90;;;;;;5085288;28;20044;-48
2021/12/31 04:59:10;;;;;;;8.77;2.10;;;12.00;99.90;;;;;;5065906;28;20048;-47
2021/12/31 05:01:36;;;;;;;12.40;2.60;;;12.00;99.90;;;;;;5049517;28;20071;-48
2021/12/31 05:04:04;;;;;;;8.02;1.90;;;12.00;99.90;;;;;;5083158;28;20383;-48
2021/12/31 05:06:32;;;;;;;5.13;1.48;;;12.10;99.90;;;;;;5056181;28;20054;-49
2021/12/31 05:08:58;;;;;;;10.57;2.42;;;12.10;99.90;;;;;;5068293;28;20374;-46
2021/12/31 05:11:24;;;;;;;6.70;2.05;;;12.00;99.90;;;;;;5076260;28;20040;-46
2021/12/31 05:13:50;;;;;;;5.07;1.98;;;12.00;99.90;;;;;;5082015;28;20055;-48
2021/12/31 05:16:16;;;;;;;9.45;2.22;;;12.00;99.90;;;;;;5040955;28;20383;-50
2021/12/31 05:18:41;;;;;;;7.55;2.13;;;12.00;99.90;;;;;;5074854;28;20131;-46
2021/12/31 05:21:07;;;;;;;10.93;2.17;;;11.90;99.90;;;;;;5065763;28;20062;-45
2021/12/31 05:23:34;;;;;;;6.57;1.98;;;12.00;99.90;;;;;;5071748;28;20044;-46
2021/12/31 05:26:01;;;;;;;5.88;2.10;;;12.00;99.90;;;;;;5084563;28;20047;-47
2021/12/31 05:28:27;;;;;;;6.47;2.00;;;12.00;99.90;;;;;;5064792;28;20083;-46
2021/12/31 05:30:55;;;;;;;7.20;2.42;;;12.00;99.90;;;;;;5062168;28;20048;-47
2021/12/31 05:33:21;;;;;;;4.85;1.90;;;12.00;99.90;;;;;;5093752;27;20379;-45
2021/12/31 05:35:47;;;;;;;6.82;1.92;;;12.00;99.90;;;;;;5087298;28;20032;-48
2021/12/31 05:38:12;;;;;;;4.18;1.98;;;12.00;99.90;;;;;;5079014;28;20032;-45
2021/12/31 05:40:38;;;;;;;5.07;1.83;;;12.00;99.90;;;;;;5087802;28;20711;-47
2021/12/31 05:43:07;;;;;;;5.70;2.42;;;11.90;99.90;;;;;;5066451;28;20039;-47
2021/12/31 05:45:36;;;;;;;6.05;2.22;;;11.90;99.90;;;;;;5077662;28;20055;-45
2021/12/31 05:48:02;;;;;;;5.63;2.30;;;11.90;99.90;;;;;;5073273;28;20111;-48
2021/12/31 05:50:28;;;;;;;8.32;2.38;;;11.90;99.90;;;;;;5087942;28;20163;-49
2021/12/31 05:52:59;;;;;;;8.90;2.90;;;11.90;99.90;;;;;;5041721;28;20041;-45
2021/12/31 05:55:28;;;;;;;7.82;2.53;;;11.90;99.90;;;;;;5079334;28;20193;-45
2021/12/31 05:57:56;;;;;;;7.22;2.00;;;11.90;99.90;;;;;;5073862;28;20033;-47
2021/12/31 06:00:22;;;;;;;;;;;11.90;99.90;;;;;;5064385;28;20052;-46
2021/12/31 06:02:49;;;;;;;6.80;2.45;;;11.80;99.90;;;;;;5070665;28;19965;-48
2021/12/31 06:05:15;;;;;;;6.00;2.58;;;11.90;99.90;;;;;;5076796;28;20393;-45
2021/12/31 06:07:41;;;;;;;10.43;2.70;;;11.80;99.90;;;;;;5065008;28;20036;-46
2021/12/31 06:10:07;;;;;;;6.72;3.25;;;11.80;99.90;;;;;;5047979;28;20032;-49
2021/12/31 06:12:37;;;;;;;4.90;3.20;;;11.90;99.90;;;;;;5068784;28;20064;-47
2021/12/31 06:15:08;;;;;;;5.82;2.75;;;11.90;99.90;;;;;;5061207;28;20126;-45
2021/12/31 06:17:34;;;;;;;5.53;2.60;;;11.90;99.90;;;;;;5068735;28;20130;-46
2021/12/31 06:20:01;;;;;;;6.53;2.83;;;11.90;99.90;;;;;;5086154;28;20572;-48
2021/12/31 06:22:29;;;;;;;5.22;2.80;;;12.00;99.90;;;;;;5067832;28;20055;-46
2021/12/31 06:24:55;;;;;;;6.07;2.78;;;11.90;99.90;;;;;;5084532;28;20044;-47
2021/12/31 06:27:21;;;;;;;6.70;2.67;;;11.90;99.90;;;;;;5069046;28;20103;-46
2021/12/31 06:29:46;;;;;;;8.52;2.47;;;11.90;99.90;;;;;;5043232;28;20434;-45
2021/12/31 06:32:12;;;;;;;6.68;2.30;;;11.90;99.90;;;;;;5049225;28;20043;-47
2021/12/31 06:34:39;;;;;;;6.40;2.53;;;11.90;99.90;;;;;;5070217;28;20460;-48
2021/12/31 06:37:07;;;;;;;6.30;2.45;;;11.90;99.90;;;;;;5083245;28;20093;-48
2021/12/31 06:39:35;;;;;;;5.13;2.33;;;11.90;99.90;;;;;;5064017;28;20067;-51
2021/12/31 06:42:03;;;;;;;7.00;2.42;;;12.00;99.90;;;;;;5087182;28;20048;-50
2021/12/31 06:44:30;;;;;;;8.50;2.60;;;11.90;99.90;;;;;;5047199;28;20084;-49
2021/12/31 06:46:57;;;;;;;7.97;2.90;;;11.90;99.90;;;;;;5060827;28;20054;-49
2021/12/31 06:49:23;;;;;;;6.03;2.33;;;11.90;99.90;;;;;;5072447;28;20391;-48
2021/12/31 06:51:49;;;;;;;5.10;1.92;;;11.90;99.90;;;;;;5063615;28;20032;-45
2021/12/31 06:54:15;;;;;;;3.88;2.30;;;11.90;99.90;;;;;;5046431;28;20131;-46
2021/12/31 06:56:41;;;;;;;3.47;2.08;;;11.80;99.90;;;;;;5095761;28;20416;-49
2021/12/31 06:59:06;;;;;;;5.97;2.80;;;11.90;99.90;;;;;;5076902;28;20055;-48
2021/12/31 07:01:48;;;;;;;8.15;2.70;;;11.90;99.90;;;;;;5074991;28;20041;-48
2021/12/31 07:04:13;;;;;;;6.28;2.70;;;11.80;99.90;;;;;;5086304;28;20118;-48
2021/12/31 07:06:39;;;;;;;6.28;2.25;;;11.90;99.90;;;;;;5055760;28;20076;-48
2021/12/31 07:09:05;;;;;;;7.38;2.70;;;11.90;99.90;;;;;;5074920;28;20041;-49
2021/12/31 07:11:32;;;;;;;6.07;2.20;;;11.90;99.90;;;;;;5061389;28;20041;-46
2021/12/31 07:13:58;;;;;;;8.77;2.67;;;11.90;99.90;;;;;;5043271;28;20047;-48
2021/12/31 07:16:24;;;;;;;6.53;2.10;;;11.90;99.90;;;;;;5061632;28;20114;-51
2021/12/31 07:18:50;;;;;;;6.72;2.05;;;11.80;99.90;;;;;;5082150;28;20437;-50
2021/12/31 07:21:16;;;;;;;6.00;2.58;;;11.90;99.90;;;;;;5064244;28;20044;-46
2021/12/31 07:23:42;;;;;;;7.60;2.47;;;11.80;99.90;;;;;;5081694;28;20350;-48
2021/12/31 07:26:08;;;;;;;7.30;2.50;;;11.80;99.90;;;;;;5080550;28;20450;-47
2021/12/31 07:28:34;;;;;;;5.50;2.45;;;11.80;99.90;;;;;;5058616;28;20051;-46
2021/12/31 07:31:00;;;;;;;3.17;1.83;;;11.80;99.90;;;;;;5072161;28;20044;-49
2021/12/31 07:33:26;;;;;;;6.57;2.33;;;11.80;99.90;;;;;;5075629;28;20051;-47
2021/12/31 07:35:53;;;;;;;4.75;2.08;;;11.70;99.90;;;;;;5059307;28;20123;-46
2021/12/31 07:38:23;;;;;;;6.45;2.25;;;11.70;99.90;;;;;;5097899;28;20044;-48
2021/12/31 07:40:51;;;;;;;4.68;2.38;;;11.70;99.90;;;;;;5070331;28;20394;-49
2021/12/31 07:43:18;;;;;;;5.88;2.30;;;11.70;99.90;;;;;;5110374;27;20047;-46
2021/12/31 07:45:45;;;;;;;4.43;1.95;;;11.60;99.90;;;;;;5084765;28;20036;-49
2021/12/31 07:48:11;;;;;;;9.53;2.50;;;11.60;99.90;;;;;;5081786;28;20413;-47
2021/12/31 07:50:38;;;;;;;5.10;2.50;;;11.60;99.90;;;;;;5105351;28;20563;-45
2021/12/31 07:53:04;;;;;;;3.03;2.10;;;11.60;99.90;;;;;;5084332;28;20500;-47
2021/12/31 07:55:31;;;;;;;3.78;1.80;;;11.60;99.90;;;;;;5086297;28;20044;-49
2021/12/31 07:57:59;;;;;;;5.55;1.95;;;11.60;99.90;;;;;;5109822;27;20093;-46
2021/12/31 08:00:25;;;;;;;9.18;2.42;;;11.60;99.90;;;;;;5077269;28;20044;-49
2021/12/31 08:02:53;;;;;;;5.22;2.20;;;11.60;99.90;;;;;;5080315;28;20035;-47
2021/12/31 08:05:19;;;;;;;6.28;2.10;;;11.60;99.90;;;;;;5062834;28;20586;-49
2021/12/31 08:07:45;;;;;;;5.55;2.17;;;11.70;99.90;;;;;;5105391;28;20039;-47
2021/12/31 08:10:11;;;;;;;7.40;2.35;;;11.70;99.90;;;;;;5100117;28;20039;-47
2021/12/31 08:12:37;;;;;;;4.87;2.00;;;11.70;99.90;;;;;;5069588;28;20035;-49
2021/12/31 08:15:05;;;;;;;6.50;2.30;;;11.70;99.90;;;;;;5084127;28;20051;-47
2021/12/31 08:17:33;;;;;;;7.03;2.28;;;11.70;99.90;;;;;;5097093;28;20055;-47
2021/12/31 08:19:59;;;;;;;7.88;2.67;;;11.70;99.90;;;;;;5071264;28;20104;-46
2021/12/31 08:22:25;;;;;;;5.70;2.45;;;11.70;99.90;;;;;;5088024;28;20198;-46
2021/12/31 08:24:51;;;;;;;9.10;2.22;;;11.70;99.90;;;;;;5085828;28;20075;-47
2021/12/31 08:27:17;;;;;;;6.20;2.30;;;11.80;99.90;;;;;;5066296;28;20387;-46
2021/12/31 08:29:43;;;;;;;5.15;1.92;;;11.70;99.90;;;;;;5073760;28;20044;-46
2021/12/31 08:32:09;;;;;;;5.45;1.67;;;11.80;99.90;;;;;;5081569;28;20371;-46
2021/12/31 08:34:39;;;;;;;5.45;1.77;;;11.80;99.90;;;;;;5089634;28;20119;-49
2021/12/31 08:37:05;;;;;;;5.68;2.13;;;11.80;99.90;;;;;;5082380;28;20032;-46
2021/12/31 08:39:31;;;;;;;5.50;1.90;;;11.80;99.90;;;;;;5058106;28;23027;-47
2021/12/31 08:41:59;;;;;;;3.72;2.00;;;11.80;99.90;;;;;;5086289;28;20047;-48
2021/12/31 08:44:25;;;;;;;4.40;2.05;;;11.90;99.90;;;;;;5082466;28;20432;-47
2021/12/31 08:46:51;;;;;;;4.43;2.13;;;11.90;99.90;;;;;;5074162;28;20405;-46
2021/12/31 08:49:17;;;;;;;5.72;2.22;;;11.90;99.90;;;;;;5080233;28;20035;-46
2021/12/31 08:51:44;;;;;;;7.90;2.28;;;11.90;99.90;;;;;;5077887;28;20378;-49
2021/12/31 08:54:10;;;;;;;4.35;2.28;;;12.00;99.90;;;;;;5100900;28;20100;-47
2021/12/31 08:56:41;;;;;;;6.72;2.55;;;12.00;99.90;;;;;;5085215;28;20516;-47
2021/12/31 08:59:08;;;;;;;6.72;2.10;;;12.00;99.90;;;;;;5104877;28;20166;-47
2021/12/31 09:01:34;;;;;;;7.43;2.42;;;12.00;99.90;;;;;;5065804;28;20054;-47
2021/12/31 09:04:00;;;;;;;6.65;2.30;;;12.00;99.90;;;;;;5079839;28;20086;-46
2021/12/31 09:06:26;;;;;;;4.68;2.35;;;12.00;99.90;;;;;;5101794;28;20068;-48
2021/12/31 09:08:52;;;;;;;8.00;2.55;;;12.00;99.90;;;;;;5104503;28;20065;-47
2021/12/31 09:11:18;;;;;;;5.10;2.27;;;12.10;99.90;;;;;;5049028;28;20040;-46
2021/12/31 09:13:46;;;;;;;6.28;2.20;;;12.10;99.90;;;;;;5061174;28;20088;-47
2021/12/31 09:16:13;;;;;;;7.00;2.63;;;12.10;99.90;;;;;;5083557;28;20044;-47
2021/12/31 09:18:39;;;;;;;5.28;2.40;;;12.10;99.90;;;;;;5111770;27;20401;-46
2021/12/31 09:21:06;;;;;;;5.13;2.35;;;12.10;99.90;;;;;;5102276;28;20083;-45
2021/12/31 09:23:32;;;;;;;6.30;2.55;;;12.00;99.90;;;;;;5083061;28;20394;-47
2021/12/31 09:25:58;;;;;;;5.85;2.30;;;12.00;99.90;;;;;;5074552;28;20047;-47
2021/12/31 09:28:25;;;;;;;4.30;2.22;;;12.00;99.90;;;;;;5088684;28;20040;-45
2021/12/31 09:30:53;;;;;;;4.18;2.50;;;12.00;99.90;;;;;;5092955;28;20075;-48
2021/12/31 09:33:22;;;;;;;;;;;12.10;99.90;;;;;;5071938;28;20043;-48
2021/12/31 09:35:48;;;;;;;;;;;12.00;99.90;;;;;;5085597;28;19960;-47
2021/12/31 09:38:14;;;;;;;7.13;2.47;;;12.00;99.90;;;;;;5101677;27;20357;-47
2021/12/31 09:40:41;;;;;;;7.50;2.60;;;12.10;99.90;;;;;;5107774;28;20063;-46
2021/12/31 09:43:11;;;;;;;7.60;3.05;;;12.10;99.90;;;;;;5073598;28;20050;-45
2021/12/31 09:45:41;;;;;;;8.95;2.70;;;12.10;99.90;;;;;;5104161;28;20091;-46
2021/12/31 09:48:15;;;;;;;8.15;2.67;;;12.10;99.90;;;;;;5090928;28;20096;-47
2021/12/31 09:50:44;;;;;;;8.43;2.80;;;12.10;99.90;;;;;;5093655;28;20386;-48
2021/12/31 09:53:11;;;;;;;8.50;3.13;;;12.10;99.90;;;;;;5070557;28;20047;-46
2021/12/31 09:55:44;;;;;;;10.60;3.40;;;12.10;99.90;;;;;;5090028;28;20066;-46
2021/12/31 09:58:15;;;;;;;5.55;2.47;;;12.10;99.90;;;;;;5103861;28;20429;-48
2021/12/31 10:00:47;;;;;;;8.82;3.58;;;12.10;99.90;;;;;;5086389;28;20116;-47
2021/12/31 10:03:24;;;;;;;7.43;2.60;;;12.00;99.90;;;;;;5102459;28;20043;-47
2021/12/31 10:05:55;;;;;;;7.03;2.53;;;12.00;99.90;;;;;;5073677;28;20039;-46
2021/12/31 10:08:31;;;;;;;9.25;3.00;;;12.00;99.90;;;;;;5081037;28;20092;-48
2021/12/31 10:11:12;;;;;;;9.80;2.70;;;11.90;99.90;;;;;;5106363;28;20048;-47
2021/12/31 10:13:43;;;;;;;7.47;2.65;;;11.90;99.90;;;;;;5068166;28;20035;-47
2021/12/31 10:16:28;;;;;;;7.95;2.67;;;11.80;99.90;;;;;;5107337;28;20043;-50
2021/12/31 10:19:15;;;;;;;6.78;3.25;;;11.80;99.90;;;;;;5079746;28;20086;-47
2021/12/31 10:21:46;;;;;;;7.88;2.67;;;11.80;99.90;;;;;;5107053;28;20165;-47
2021/12/31 10:24:32;;;;;;;5.82;2.65;;;11.80;99.90;;;;;;5091191;28;20056;-48
2021/12/31 10:27:23;;;;;;;8.48;2.80;;;11.80;99.90;;;;;;5100912;28;20142;-48
2021/12/31 10:29:53;;;;;;;7.85;2.92;;;11.70;99.90;;;;;;5099857;28;20079;-48
2021/12/31 10:32:20;;;;;;;8.20;3.17;;;11.70;99.90;;;;;;5102428;28;20040;-47
2021/12/31 10:34:49;;;;;;;8.05;3.15;;;11.70;99.90;;;;;;5105399;28;20040;-45
2021/12/31 10:37:17;;;;;;;10.50;3.00;;;11.70;99.90;;;;;;5090154;28;20443;-44
2021/12/31 10:39:44;;;;;;;7.68;3.40;;;11.70;99.90;;;;;;5106279;28;20165;-46
2021/12/31 10:42:14;;;;;;;12.70;3.88;;;11.80;99.90;;;;;;5086288;28;20135;-48
2021/12/31 10:44:49;;;;;;;8.50;2.83;;;11.70;99.90;;;;;;5068940;28;20274;-46
2021/12/31 10:47:18;;;;;;;8.75;3.30;;;11.80;99.90;;;;;;5076998;28;20519;-45
2021/12/31 10:50:02;;;;;;;10.90;3.30;;;11.70;99.90;;;;;;5087920;28;20048;-45
2021/12/31 10:52:36;;;;;;;7.03;3.10;;;11.70;99.90;;;;;;5099927;28;20547;-47
2021/12/31 10:55:04;;;;;;;7.82;2.92;;;11.70;99.90;;;;;;5103324;28;20047;-46
2021/12/31 10:57:38;;;;;;;6.82;3.00;;;11.70;99.90;;;;;;5085728;28;20083;-46
2021/12/31 11:00:06;;;;;;;9.88;3.03;;;11.70;99.90;;;;;;5070702;28;20063;-45
2021/12/31 11:02:36;;;;;;;8.15;3.15;;;11.80;99.90;;;;;;5084370;28;20040;-45
2021/12/31 11:05:03;;;;;;;5.53;2.40;;;11.70;99.90;;;;;;5098920;28;20099;-45
2021/12/31 11:07:31;;;;;;;6.68;2.80;;;11.70;99.90;;;;;;5105019;28;20048;-46
2021/12/31 11:10:04;;;;;;;6.88;2.83;;;11.70;99.90;;;;;;5087591;28;20440;-47
2021/12/31 11:12:32;;;;;;;8.10;3.33;;;11.70;99.90;;;;;;5104383;28;20489;-47
2021/12/31 11:14:58;;;;;;;7.78;3.63;;;11.70;99.90;;;;;;5101314;28;20035;-45
2021/12/31 11:17:31;;;;;;;7.68;3.83;;;11.70;99.90;;;;;;5099850;28;20263;-45
2021/12/31 11:20:00;;;;;;;13.05;4.57;;;11.70;99.90;;;;;;5070682;28;20573;-45
2021/12/31 11:22:30;;;;;;;10.32;3.78;;;11.70;99.90;;;;;;5097581;28;20031;-46
2021/12/31 11:25:18;;;;;;;7.80;4.25;;;11.70;99.90;;;;;;5115600;27;20052;-45
2021/12/31 11:27:47;;;;;;;10.15;4.45;;;11.70;99.90;;;;;;5101553;28;20509;-46
2021/12/31 11:30:31;;;;;;;9.13;4.03;;;11.70;99.90;;;;;;5100126;28;20047;-45
2021/12/31 11:33:06;;;;;;;12.10;4.38;;;11.70;99.90;;;;;;5106541;28;20184;-45
2021/12/31 11:35:37;;;;;;;12.98;4.28;;;11.70;99.90;;;;;;5099422;28;20040;-45
2021/12/31 11:38:12;;;;;;;13.02;4.68;;;11.60;99.90;;;;;;5099661;28;20501;-47
2021/12/31 11:40:49;;;;;;;8.98;3.97;;;11.60;99.90;;;;;;5067095;28;20103;-48
2021/12/31 11:43:15;;;;;;;11.70;3.63;;;11.60;99.90;;;;;;5076772;28;20047;-47
2021/12/31 11:45:42;;;;;;;8.35;4.28;;;11.60;99.90;;;;;;5083488;28;20044;-47
2021/12/31 11:51:13;;;;;;;8.27;4.05;;;11.60;99.90;;;;;;5072721;28;20040;-47
2021/12/31 11:54:00;;;;;;;14.23;4.30;;;11.60;99.90;;;;;;5075617;28;20488;-45
2021/12/31 11:56:39;;;;;;;9.10;4.25;;;11.50;99.90;;;;;;5090672;28;20097;-46
2021/12/31 11:59:09;;;;;;;9.40;3.88;;;11.50;99.90;;;;;;5073217;28;20133;-48
2021/12/31 12:01:52;;;;;;;8.18;3.92;;;11.50;99.90;;;;;;5063705;28;20076;-49
2021/12/31 12:04:25;;;;;;;9.57;3.90;;;11.50;99.90;;;;;;5080524;28;20146;-46
2021/12/31 12:06:55;;;;;;;9.05;3.78;;;11.50;99.90;;;;;;5085763;28;20036;-44
2021/12/31 12:09:43;;;;;;;8.43;3.90;;;11.50;99.90;;;;;;5071064;28;20068;-46
2021/12/31 12:12:26;;;;;;;7.57;3.97;;;11.50;99.90;;;;;;5076245;28;20754;-47
2021/12/31 12:15:03;;;;;;;7.55;3.28;;;11.40;99.90;;;;;;5083285;28;20076;-44
2021/12/31 12:17:28;;;;;;;6.60;3.60;;;11.40;99.90;;;;;;5061875;28;20047;-47
2021/12/31 12:19:58;;;;;;;9.00;4.07;;;11.50;99.90;;;;;;5058073;28;20123;-45
2021/12/31 12:22:58;;;;;;;7.57;4.03;;;11.50;99.90;;;;;;5073465;28;20125;-46
2021/12/31 12:25:26;;;;;;;5.55;3.72;;;11.50;99.90;;;;;;5057969;28;20052;-45
2021/12/31 12:27:57;;;;;;;7.45;3.47;;;11.50;99.90;;;;;;5066342;28;20051;-46
2021/12/31 12:30:24;;;;;;;9.20;3.60;;;11.50;99.90;;;;;;5080397;28;20040;-47
2021/12/31 12:33:16;;;;;;;6.97;3.45;;;11.50;99.90;;;;;;5069540;28;20061;-47
2021/12/31 12:35:45;;;;;;;6.97;3.05;;;11.40;99.90;;;;;;5065666;28;20123;-47
2021/12/31 12:38:21;;;;;;;5.25;2.60;;;11.40;99.90;;;;;;5078308;28;20374;-46
2021/12/31 12:40:56;;;;;;;4.57;3.00;;;11.40;99.90;;;;;;5060738;28;20106;-46
2021/12/31 12:43:26;;;;;;;5.07;2.97;;;11.40;99.90;;;;;;5065167;28;20409;-47
2021/12/31 12:46:04;;;;;;;7.35;3.08;;;11.40;99.90;;;;;;5081031;28;20040;-46
2021/12/31 12:48:46;;;;;;;6.80;2.85;;;11.40;99.90;;;;;;5077251;28;20122;-45
2021/12/31 12:51:15;;;;;;;7.57;3.10;;;11.40;99.90;;;;;;5047826;28;20112;-47
2021/12/31 12:53:46;;;;;;;5.63;3.10;;;11.40;99.90;;;;;;5064233;28;20040;-47
2021/12/31 12:56:17;;;;;;;10.68;3.55;;;11.40;99.90;;;;;;5074077;28;20386;-45